Time;durP1;ratioP1;P1;durP2;ratioP2;P2;SDS_P1;SDS_P2;PMS_P1;PMS_P2;Temp;Humidity;BMP_temperature;BMP_pressure;BME280_temperature;BME280_humidity;BME280_pressure;Samples;Min_cycle;Max_cycle;Signal;HPM_P1;HPM_P2
2022/04/30 00:01:28;;;;;;;12.30;4.10;;;5.00;99.90;;;;;;4970330;28;20962;-70
2022/04/30 00:03:54;;;;;;;8.30;3.70;;;5.00;99.90;;;;;;4965546;28;20084;-70
2022/04/30 00:06:20;;;;;;;12.27;4.40;;;5.00;99.90;;;;;;4966824;28;20057;-70
2022/04/30 00:08:46;;;;;;;11.32;4.72;;;5.00;99.90;;;;;;4969355;28;20099;-70
2022/04/30 00:11:13;;;;;;;9.75;4.55;;;5.00;99.90;;;;;;4970953;28;20049;-70
2022/04/30 00:13:38;;;;;;;16.08;4.55;;;5.00;99.90;;;;;;4971759;28;20041;-71
2022/04/30 00:16:04;;;;;;;9.80;4.18;;;5.00;99.90;;;;;;4972687;28;20054;-70
2022/04/30 00:18:30;;;;;;;8.85;4.82;;;4.90;99.90;;;;;;4964530;28;20046;-71
2022/04/30 00:20:58;;;;;;;12.07;4.97;;;4.90;99.90;;;;;;4938252;28;20589;-71
2022/04/30 00:23:26;;;;;;;7.60;4.20;;;4.80;99.90;;;;;;4957540;28;20064;-71
2022/04/30 00:25:54;;;;;;;12.75;4.55;;;4.80;99.90;;;;;;4966531;28;20060;-71
2022/04/30 00:28:24;;;;;;;12.65;5.47;;;4.80;99.90;;;;;;4972231;28;20050;-70
2022/04/30 00:30:51;;;;;;;14.70;4.35;;;4.80;99.90;;;;;;4971693;28;20037;-71
2022/04/30 00:33:17;;;;;;;8.88;4.22;;;4.80;99.90;;;;;;4967877;28;20049;-70
2022/04/30 00:35:43;;;;;;;9.75;4.45;;;4.80;99.90;;;;;;4969595;28;20491;-70
2022/04/30 00:38:10;;;;;;;12.45;4.28;;;4.70;99.90;;;;;;4972877;28;20050;-70
2022/04/30 00:40:36;;;;;;;9.07;4.40;;;4.60;99.90;;;;;;4970153;28;20134;-70
2022/04/30 00:43:02;;;;;;;7.80;3.92;;;4.60;99.90;;;;;;4970260;28;20536;-70
2022/04/30 00:45:28;;;;;;;9.02;4.25;;;4.50;99.90;;;;;;4969892;28;20041;-71
2022/04/30 00:47:55;;;;;;;11.15;4.88;;;4.50;99.90;;;;;;4972272;28;20050;-71
2022/04/30 00:50:21;;;;;;;10.07;4.22;;;4.50;99.90;;;;;;4971209;28;20932;-70
2022/04/30 00:52:48;;;;;;;14.52;4.70;;;4.50;99.90;;;;;;4955460;28;20056;-71
2022/04/30 00:55:19;;;;;;;11.95;4.15;;;4.50;99.90;;;;;;4969503;28;20049;-71
2022/04/30 00:57:45;;;;;;;12.27;4.45;;;4.50;99.90;;;;;;4985681;28;20038;-70
2022/04/30 01:00:12;;;;;;;9.20;4.05;;;4.40;99.90;;;;;;4989697;28;20140;-71
2022/04/30 01:02:38;;;;;;;15.60;4.97;;;4.40;99.90;;;;;;4985833;28;20132;-70
2022/04/30 01:05:05;;;;;;;10.45;4.15;;;4.50;99.90;;;;;;4986345;28;20403;-70
2022/04/30 01:07:31;;;;;;;14.20;4.82;;;4.40;99.90;;;;;;4969865;28;20046;-70
2022/04/30 01:09:57;;;;;;;9.18;4.65;;;4.40;99.90;;;;;;4983803;28;20300;-71
2022/04/30 01:12:23;;;;;;;7.38;3.55;;;4.30;99.90;;;;;;4984766;28;20746;-70
2022/04/30 01:14:52;;;;;;;7.75;3.35;;;4.30;99.90;;;;;;4982982;28;20064;-70
2022/04/30 01:17:19;;;;;;;6.13;2.60;;;4.20;99.90;;;;;;4985002;28;20124;-70
2022/04/30 01:19:47;;;;;;;9.65;3.45;;;4.20;99.90;;;;;;4985457;28;20045;-71
2022/04/30 01:22:29;;;;;;;8.38;3.80;;;4.10;99.90;;;;;;4987840;28;20058;-71
2022/04/30 01:24:56;;;;;;;8.55;4.15;;;4.10;99.90;;;;;;4985561;28;20407;-70
2022/04/30 01:27:23;;;;;;;8.45;3.92;;;4.00;99.90;;;;;;4983389;28;20049;-70
2022/04/30 01:29:49;;;;;;;10.15;3.65;;;4.00;99.90;;;;;;4985732;28;20115;-70
2022/04/30 01:37:44;;;;;;;10.35;4.68;;;3.90;99.90;;;;;;4984085;28;20064;-70
2022/04/30 01:40:11;;;;;;;11.10;3.67;;;3.80;99.90;;;;;;4982516;28;20046;-70
2022/04/30 01:42:44;;;;;;;14.32;4.35;;;3.80;99.90;;;;;;4985519;28;20084;-71
2022/04/30 01:45:11;;;;;;;8.52;3.90;;;3.80;99.90;;;;;;4982711;28;20050;-70
2022/04/30 01:47:41;;;;;;;9.07;4.40;;;3.70;99.90;;;;;;4984854;28;20535;-70
2022/04/30 01:50:08;;;;;;;14.18;4.85;;;3.70;99.90;;;;;;4965114;28;20061;-70
2022/04/30 01:52:34;;;;;;;10.30;5.55;;;3.70;99.90;;;;;;4988683;28;20253;-70
2022/04/30 01:55:00;;;;;;;11.40;5.05;;;3.70;99.90;;;;;;4984478;28;20129;-71
2022/04/30 01:57:26;;;;;;;9.82;4.72;;;3.70;99.90;;;;;;4986597;28;20046;-70
2022/04/30 02:00:01;;;;;;;10.35;4.88;;;3.70;99.90;;;;;;4980776;28;20053;-71
2022/04/30 02:02:30;;;;;;;11.25;5.45;;;3.60;99.90;;;;;;4984659;28;20261;-70
2022/04/30 02:05:01;;;;;;;11.55;5.65;;;3.60;99.90;;;;;;4986471;28;20046;-70
2022/04/30 02:07:28;;;;;;;11.18;5.88;;;3.50;99.90;;;;;;4984058;28;20042;-71
2022/04/30 02:09:58;;;;;;;10.85;5.63;;;3.60;99.90;;;;;;4985785;28;20045;-70
2022/04/30 02:12:27;;;;;;;15.48;6.25;;;3.50;99.90;;;;;;4983391;28;20091;-70
2022/04/30 02:14:54;;;;;;;12.43;5.72;;;3.40;99.90;;;;;;4986327;28;20091;-70
2022/04/30 02:17:22;;;;;;;13.05;6.05;;;3.40;99.90;;;;;;4985645;28;20133;-71
2022/04/30 02:22:38;;;;;;;16.90;6.70;;;3.40;99.90;;;;;;4982826;28;20156;-70
2022/04/30 02:25:09;;;;;;;17.92;6.18;;;3.40;99.90;;;;;;4985286;28;20554;-70
2022/04/30 02:27:43;;;;;;;17.42;6.25;;;3.40;99.90;;;;;;4983572;28;20042;-71
2022/04/30 02:30:14;;;;;;;40.53;6.97;;;3.50;99.90;;;;;;4985814;28;20053;-71
2022/04/30 02:32:40;;;;;;;15.65;6.97;;;3.50;99.90;;;;;;4982497;28;20049;-70
2022/04/30 02:35:08;;;;;;;25.60;7.05;;;3.50;99.90;;;;;;4985056;28;20165;-70
2022/04/30 02:37:35;;;;;;;21.83;7.50;;;3.60;99.90;;;;;;4986521;28;20503;-70
2022/04/30 02:40:01;;;;;;;21.05;8.00;;;3.70;99.90;;;;;;4972489;28;20989;-70
2022/04/30 02:42:27;;;;;;;13.50;6.35;;;3.80;99.90;;;;;;4986504;28;20049;-70
2022/04/30 02:44:53;;;;;;;14.57;7.18;;;3.80;99.90;;;;;;4987910;28;20411;-70
2022/04/30 02:47:19;;;;;;;11.90;5.47;;;3.80;99.90;;;;;;4982243;28;20068;-70
2022/04/30 02:49:45;;;;;;;16.67;4.90;;;3.70;99.90;;;;;;4983097;28;20048;-70
2022/04/30 02:52:10;;;;;;;16.00;4.45;;;3.60;99.90;;;;;;4982851;28;20093;-71
2022/04/30 02:54:36;;;;;;;22.25;5.05;;;3.60;99.90;;;;;;4980477;28;20649;-70
2022/04/30 02:57:02;;;;;;;16.80;4.95;;;3.60;99.90;;;;;;4981323;28;20052;-71
2022/04/30 03:02:12;;;;;;;20.65;5.25;;;3.50;99.90;;;;;;4987310;28;20049;-70
2022/04/30 03:04:38;;;;;;;11.18;4.47;;;3.40;99.90;;;;;;4983607;28;20149;-70
2022/04/30 03:07:04;;;;;;;15.88;5.15;;;3.40;99.90;;;;;;4983213;28;20432;-70
2022/04/30 03:09:31;;;;;;;52.50;6.00;;;3.30;99.90;;;;;;4987252;28;20056;-70
2022/04/30 03:11:58;;;;;;;9.88;4.93;;;3.40;99.90;;;;;;4985785;28;20081;-70
2022/04/30 03:14:24;;;;;;;12.10;4.90;;;3.30;99.90;;;;;;4979523;28;20072;-70
2022/04/30 03:22:18;;;;;;;10.82;4.50;;;3.20;99.90;;;;;;4986733;28;20631;-70
2022/04/30 03:24:44;;;;;;;11.32;4.88;;;3.20;99.90;;;;;;4985160;28;20544;-70
2022/04/30 03:27:11;;;;;;;14.05;6.03;;;3.20;99.90;;;;;;4983371;28;20411;-70
2022/04/30 03:29:37;;;;;;;16.38;5.55;;;3.20;99.90;;;;;;4947831;28;20057;-70
2022/04/30 03:32:03;;;;;;;11.05;4.82;;;3.20;99.90;;;;;;4961346;28;20042;-70
2022/04/30 03:34:32;;;;;;;22.08;5.03;;;3.20;99.90;;;;;;4981959;28;20513;-70
2022/04/30 03:36:58;;;;;;;16.65;5.60;;;3.30;99.90;;;;;;4985125;28;20495;-70
2022/04/30 03:39:24;;;;;;;13.15;3.75;;;3.30;99.90;;;;;;4990695;28;20049;-70
2022/04/30 03:41:50;;;;;;;12.48;4.97;;;3.40;99.90;;;;;;4987406;28;20046;-70
2022/04/30 03:44:16;;;;;;;16.30;5.10;;;3.40;99.90;;;;;;4984768;28;20041;-70
2022/04/30 03:46:42;;;;;;;16.45;5.32;;;3.50;99.90;;;;;;4986728;28;20156;-70
2022/04/30 03:49:07;;;;;;;28.10;6.20;;;3.50;99.90;;;;;;4982278;28;20136;-70
2022/04/30 03:51:33;;;;;;;26.20;6.72;;;3.40;99.90;;;;;;4984615;28;20477;-70
2022/04/30 03:53:59;;;;;;;17.95;7.00;;;3.60;99.90;;;;;;4982636;28;20038;-70
2022/04/30 03:56:25;;;;;;;24.38;7.43;;;3.70;99.90;;;;;;4983927;28;20049;-71
2022/04/30 03:58:51;;;;;;;20.55;7.88;;;3.60;99.90;;;;;;4962522;28;20152;-70
2022/04/30 04:01:21;;;;;;;23.02;8.35;;;3.50;99.90;;;;;;4983690;28;20049;-71
2022/04/30 04:03:50;;;;;;;24.95;8.15;;;3.50;99.90;;;;;;4986340;28;20135;-69
2022/04/30 04:06:19;;;;;;;26.73;9.48;;;3.50;99.90;;;;;;4984328;28;20061;-70
2022/04/30 04:08:50;;;;;;;23.42;7.65;;;3.50;99.90;;;;;;4990122;28;20057;-70
2022/04/30 04:11:17;;;;;;;21.88;7.50;;;3.60;99.90;;;;;;4969466;28;20050;-70
2022/04/30 04:19:12;;;;;;;23.25;7.57;;;3.80;99.90;;;;;;4984847;28;20093;-70
2022/04/30 04:21:38;;;;;;;18.55;7.63;;;3.90;99.90;;;;;;4987695;28;20050;-70
2022/04/30 04:26:48;;;;;;;23.05;7.00;;;4.00;99.90;;;;;;4977354;28;20112;-70
2022/04/30 04:29:16;;;;;;;28.75;7.40;;;4.00;99.90;;;;;;4991483;28;20601;-69
2022/04/30 04:31:44;;;;;;;18.15;7.22;;;4.10;99.90;;;;;;4967212;28;20775;-70
2022/04/30 04:34:11;;;;;;;17.92;7.85;;;4.20;99.90;;;;;;4985162;28;20042;-70
2022/04/30 04:36:37;;;;;;;19.70;7.65;;;4.20;99.90;;;;;;4988068;28;20046;-70
2022/04/30 04:39:12;;;;;;;20.55;8.13;;;4.20;99.90;;;;;;4997816;28;20601;-70
2022/04/30 04:41:38;;;;;;;20.35;8.05;;;4.30;99.90;;;;;;4988441;28;20054;-70
2022/04/30 04:44:04;;;;;;;17.38;7.55;;;4.40;99.90;;;;;;4991880;28;20601;-70
2022/04/30 04:46:30;;;;;;;17.85;8.13;;;4.40;99.90;;;;;;4988729;28;20038;-71
2022/04/30 04:48:55;;;;;;;19.17;8.45;;;4.60;99.90;;;;;;4991382;28;20049;-70
2022/04/30 04:51:21;;;;;;;18.40;8.20;;;4.90;99.90;;;;;;4995096;28;20060;-70
2022/04/30 04:53:48;;;;;;;16.92;8.13;;;5.20;99.90;;;;;;4979722;28;20085;-70
2022/04/30 04:56:13;;;;;;;23.77;8.52;;;5.30;99.90;;;;;;4994880;28;20041;-71
2022/04/30 04:58:42;;;;;;;16.02;7.65;;;5.60;99.90;;;;;;4973382;28;20092;-70
2022/04/30 05:01:07;;;;;;;18.70;8.43;;;6.30;99.90;;;;;;4990808;28;20080;-71
2022/04/30 05:03:33;;;;;;;23.15;8.07;;;7.10;99.90;;;;;;4990329;28;20041;-71
2022/04/30 05:05:59;;;;;;;26.48;8.70;;;7.80;99.90;;;;;;4987886;28;20053;-71
2022/04/30 05:08:25;;;;;;;41.47;10.57;;;8.20;99.90;;;;;;4991325;28;20133;-71
2022/04/30 05:10:51;;;;;;;23.67;8.43;;;8.40;99.90;;;;;;4988640;28;20515;-71
2022/04/30 05:13:17;;;;;;;21.60;8.10;;;8.80;99.90;;;;;;4989135;28;20111;-71
2022/04/30 05:15:43;;;;;;;28.55;9.38;;;9.20;99.90;;;;;;4969616;28;20096;-71
2022/04/30 05:18:09;;;;;;;15.60;8.55;;;9.80;99.90;;;;;;4992336;28;20042;-71
2022/04/30 05:20:34;;;;;;;36.90;9.52;;;10.10;99.90;;;;;;4989050;28;20058;-71
2022/04/30 05:23:00;;;;;;;32.95;9.80;;;10.00;99.90;;;;;;4992690;28;20641;-71
2022/04/30 05:25:26;;;;;;;32.55;10.30;;;9.90;99.90;;;;;;4971522;28;20045;-71
2022/04/30 05:27:52;;;;;;;25.33;9.35;;;10.10;99.90;;;;;;4988187;28;20522;-71
2022/04/30 05:30:18;;;;;;;24.65;10.68;;;9.70;99.90;;;;;;4991167;28;20054;-71
2022/04/30 05:32:44;;;;;;;16.50;8.50;;;10.00;99.90;;;;;;4989067;28;20211;-71
2022/04/30 05:35:10;;;;;;;15.85;7.53;;;10.00;99.90;;;;;;4989797;28;20045;-71
2022/04/30 05:37:36;;;;;;;15.25;8.07;;;9.90;99.90;;;;;;4988063;28;20056;-71
2022/04/30 05:40:02;;;;;;;14.55;7.95;;;10.30;99.90;;;;;;4992187;28;20039;-71
2022/04/30 05:42:28;;;;;;;20.25;7.88;;;10.90;99.90;;;;;;4974122;28;20514;-71
2022/04/30 05:44:54;;;;;;;18.90;8.80;;;11.40;99.90;;;;;;4987363;28;20046;-71
2022/04/30 05:47:19;;;;;;;19.15;8.13;;;11.10;99.90;;;;;;4988702;28;20593;-71
2022/04/30 05:49:45;;;;;;;14.45;7.78;;;10.40;99.90;;;;;;4970981;28;20054;-71
2022/04/30 05:52:14;;;;;;;30.17;9.38;;;9.90;99.90;;;;;;4971523;28;20054;-71
2022/04/30 05:54:39;;;;;;;30.65;8.93;;;9.70;99.90;;;;;;4988363;28;20061;-71
2022/04/30 05:57:05;;;;;;;31.52;8.65;;;9.50;99.90;;;;;;4990173;28;20049;-71
2022/04/30 05:59:31;;;;;;;57.33;10.40;;;9.10;99.90;;;;;;4973568;28;20504;-71
2022/04/30 06:01:57;;;;;;;26.90;8.73;;;9.30;99.90;;;;;;4987398;28;20054;-71
2022/04/30 06:04:22;;;;;;;14.80;7.68;;;9.30;99.90;;;;;;4985799;28;20050;-71
2022/04/30 06:06:48;;;;;;;21.50;7.55;;;9.20;99.90;;;;;;4970615;28;20554;-71
2022/04/30 06:09:14;;;;;;;27.05;8.75;;;9.60;99.90;;;;;;4987346;28;20060;-71
2022/04/30 06:11:40;;;;;;;18.85;8.23;;;10.00;99.90;;;;;;4993091;28;20107;-71
2022/04/30 06:14:06;;;;;;;57.00;9.82;;;10.40;99.90;;;;;;4988201;28;20050;-71
2022/04/30 06:16:32;;;;;;;32.30;9.15;;;10.60;99.90;;;;;;4989535;28;20058;-71
2022/04/30 06:18:58;;;;;;;12.85;6.90;;;11.20;99.90;;;;;;4991318;28;20060;-71
2022/04/30 06:21:24;;;;;;;22.42;7.32;;;11.10;99.90;;;;;;4992759;28;20042;-71
2022/04/30 06:23:50;;;;;;;12.20;7.20;;;11.40;99.90;;;;;;4988482;28;20045;-71
2022/04/30 06:26:16;;;;;;;16.50;7.15;;;11.70;99.90;;;;;;4988394;28;20045;-71
2022/04/30 06:28:42;;;;;;;13.35;6.82;;;11.80;99.90;;;;;;4988694;28;20113;-71
2022/04/30 06:31:07;;;;;;;10.77;5.88;;;11.80;99.90;;;;;;4986544;28;20080;-71
2022/04/30 06:33:33;;;;;;;13.70;6.60;;;11.30;99.90;;;;;;4970359;28;20152;-71
2022/04/30 06:35:59;;;;;;;15.70;6.00;;;11.60;99.90;;;;;;4955045;28;20072;-71
2022/04/30 06:38:25;;;;;;;16.50;6.65;;;11.40;99.90;;;;;;4988837;28;20046;-71
2022/04/30 06:40:51;;;;;;;11.93;6.40;;;11.30;99.90;;;;;;4987159;28;20054;-71
2022/04/30 06:43:16;;;;;;;13.38;6.05;;;11.30;99.90;;;;;;4987341;28;20139;-71
2022/04/30 06:45:42;;;;;;;11.90;6.35;;;11.00;99.90;;;;;;4968799;28;20095;-71
2022/04/30 06:48:08;;;;;;;13.50;6.63;;;10.80;99.90;;;;;;4987586;28;20050;-71
2022/04/30 06:50:34;;;;;;;13.55;6.32;;;11.00;99.90;;;;;;4986968;28;20555;-71
2022/04/30 06:58:40;;;;;;;11.05;5.90;;;11.20;99.90;;;;;;4986643;28;20042;-71
2022/04/30 07:01:37;;;;;;;12.00;6.15;;;11.20;99.90;;;;;;4991037;28;20409;-71
2022/04/30 07:04:01;;;;;;;12.73;5.75;;;11.20;99.90;;;;;;4987140;28;20042;-71
2022/04/30 07:06:29;;;;;;;11.57;5.80;;;11.40;99.90;;;;;;4985753;28;20049;-71
2022/04/30 07:08:55;;;;;;;11.60;5.53;;;11.20;99.90;;;;;;4967834;28;20831;-71
2022/04/30 07:11:22;;;;;;;9.90;5.13;;;11.70;99.90;;;;;;4990009;28;20054;-71
2022/04/30 07:13:48;;;;;;;8.27;4.47;;;11.50;99.90;;;;;;4969822;28;20069;-71
2022/04/30 07:16:14;;;;;;;11.10;5.28;;;11.40;99.90;;;;;;4991234;28;20057;-71
2022/04/30 07:18:39;;;;;;;10.23;4.78;;;12.10;99.90;;;;;;4970085;28;20061;-71
2022/04/30 07:21:05;;;;;;;11.95;4.93;;;12.30;99.90;;;;;;4970534;28;20053;-71
2022/04/30 07:23:31;;;;;;;9.15;4.70;;;12.40;99.90;;;;;;4988870;28;20136;-71
2022/04/30 07:25:57;;;;;;;8.23;5.30;;;12.40;99.90;;;;;;4971212;28;20540;-71
2022/04/30 07:28:23;;;;;;;12.73;5.15;;;12.20;99.90;;;;;;4972847;28;20061;-71
2022/04/30 07:30:50;;;;;;;10.10;5.43;;;12.30;99.90;;;;;;4986883;28;20105;-71
2022/04/30 07:33:16;;;;;;;10.85;4.65;;;12.80;99.90;;;;;;4989154;28;20545;-71
2022/04/30 07:35:42;;;;;;;10.88;4.93;;;12.90;99.90;;;;;;4984011;28;20592;-71
2022/04/30 07:38:07;;;;;;;10.07;4.70;;;13.10;99.90;;;;;;4985359;28;20046;-72
2022/04/30 07:40:35;;;;;;;15.02;5.20;;;13.30;99.90;;;;;;4955547;28;20046;-72
2022/04/30 07:43:02;;;;;;;9.75;4.65;;;13.00;99.90;;;;;;4987396;28;20562;-72
2022/04/30 07:45:28;;;;;;;7.30;4.05;;;12.70;99.90;;;;;;4985944;28;20049;-72
2022/04/30 07:47:55;;;;;;;8.68;3.97;;;13.10;99.90;;;;;;4986625;28;20407;-71
2022/04/30 07:50:25;;;;;;;8.00;4.38;;;12.60;99.90;;;;;;4989095;28;20048;-72
2022/04/30 07:52:51;;;;;;;12.93;4.93;;;12.80;99.90;;;;;;4986428;28;20046;-71
2022/04/30 07:55:17;;;;;;;21.33;5.70;;;13.50;99.90;;;;;;4972312;28;20514;-71
2022/04/30 07:57:42;;;;;;;9.65;5.10;;;13.50;99.90;;;;;;4994647;28;20060;-72
2022/04/30 08:00:09;;;;;;;11.63;6.10;;;14.00;99.90;;;;;;4972651;28;20049;-72
2022/04/30 08:02:35;;;;;;;13.30;5.72;;;13.90;99.90;;;;;;4986440;28;20054;-72
2022/04/30 08:05:03;;;;;;;11.82;5.50;;;14.50;99.90;;;;;;4966464;28;20041;-72
2022/04/30 08:07:29;;;;;;;11.35;5.47;;;14.60;99.90;;;;;;4968026;28;20113;-72
2022/04/30 08:09:55;;;;;;;10.50;5.20;;;15.20;99.90;;;;;;4983183;28;20045;-72
2022/04/30 08:12:21;;;;;;;9.93;5.50;;;14.70;99.90;;;;;;4968978;28;20049;-72
2022/04/30 08:14:48;;;;;;;9.40;5.28;;;15.50;99.90;;;;;;4989597;28;20526;-72
2022/04/30 08:17:13;;;;;;;10.30;5.35;;;15.60;99.90;;;;;;4990293;28;20133;-71
2022/04/30 08:19:42;;;;;;;10.20;5.53;;;14.80;99.90;;;;;;4987544;28;20092;-72
2022/04/30 08:22:08;;;;;;;11.70;5.22;;;14.60;99.90;;;;;;4968808;28;20088;-72
2022/04/30 08:24:34;;;;;;;11.80;5.50;;;14.50;99.90;;;;;;4974651;28;20053;-72
2022/04/30 08:27:00;;;;;;;10.57;5.22;;;14.30;99.90;;;;;;4986830;28;20822;-72
2022/04/30 08:29:28;;;;;;;13.48;6.25;;;14.60;99.90;;;;;;4988007;28;20120;-72
2022/04/30 08:31:57;;;;;;;10.75;5.07;;;14.60;99.90;;;;;;4989244;28;20080;-71
2022/04/30 08:34:23;;;;;;;16.17;5.50;;;14.00;99.90;;;;;;4989473;28;20034;-71
2022/04/30 08:36:49;;;;;;;8.85;4.82;;;14.20;99.90;;;;;;4986825;28;20576;-72
2022/04/30 08:39:15;;;;;;;14.25;5.25;;;13.90;99.90;;;;;;4971079;28;20050;-72
2022/04/30 08:41:42;;;;;;;10.13;5.63;;;14.10;99.90;;;;;;4970700;28;20053;-72
2022/04/30 08:44:19;;;;;;;12.77;4.93;;;14.10;99.90;;;;;;4988289;28;20053;-72
2022/04/30 08:46:45;;;;;;;10.07;4.97;;;14.30;99.90;;;;;;4987450;28;20066;-72
2022/04/30 08:49:12;;;;;;;9.65;4.63;;;14.10;99.90;;;;;;4992429;28;20046;-72
2022/04/30 08:51:41;;;;;;;10.80;4.25;;;14.10;99.90;;;;;;4972317;28;20116;-72
2022/04/30 08:54:07;;;;;;;8.35;4.07;;;13.20;99.90;;;;;;4991083;28;20053;-72
2022/04/30 08:56:35;;;;;;;12.05;4.38;;;13.40;99.90;;;;;;4987743;28;20555;-72
2022/04/30 08:59:04;;;;;;;9.52;4.32;;;13.40;99.90;;;;;;4975382;28;21156;-72
2022/04/30 09:01:52;;;;;;;12.48;4.68;;;13.40;99.90;;;;;;4975485;28;20133;-72
2022/04/30 09:04:19;;;;;;;13.48;4.93;;;13.20;99.90;;;;;;4974322;28;20053;-72
2022/04/30 09:06:49;;;;;;;18.15;5.47;;;13.30;99.90;;;;;;4972977;28;20053;-72
2022/04/30 09:09:28;;;;;;;9.88;4.85;;;13.50;99.90;;;;;;4975028;28;20064;-72
2022/04/30 09:11:57;;;;;;;12.48;5.28;;;13.10;99.90;;;;;;4988725;28;20042;-72
2022/04/30 09:14:28;;;;;;;11.00;5.05;;;13.40;99.90;;;;;;4971594;28;20064;-72
2022/04/30 09:17:02;;;;;;;15.77;5.15;;;13.70;99.90;;;;;;4990420;28;20115;-72
2022/04/30 09:19:27;;;;;;;7.68;4.82;;;13.70;99.90;;;;;;4973260;28;20983;-72
2022/04/30 09:21:53;;;;;;;10.65;4.85;;;13.50;99.90;;;;;;4973232;28;20051;-72
2022/04/30 09:24:19;;;;;;;13.90;4.93;;;13.50;99.90;;;;;;4990081;28;20042;-72
2022/04/30 09:26:45;;;;;;;8.50;4.47;;;13.80;99.90;;;;;;4992326;28;20644;-72
2022/04/30 09:29:24;;;;;;;9.15;4.20;;;14.40;99.90;;;;;;4969909;28;20049;-72
2022/04/30 09:31:53;;;;;;;11.48;4.40;;;14.60;99.90;;;;;;4986234;28;20046;-72
2022/04/30 09:39:50;;;;;;;10.00;4.13;;;14.80;99.90;;;;;;4989150;28;20486;-72
2022/04/30 09:42:16;;;;;;;6.63;3.20;;;14.80;99.90;;;;;;4990598;28;20045;-72
2022/04/30 09:44:42;;;;;;;8.32;3.83;;;14.60;99.90;;;;;;4994624;28;20050;-72
2022/04/30 09:47:08;;;;;;;10.02;4.30;;;14.60;99.90;;;;;;4988374;28;20085;-72
2022/04/30 09:55:17;;;;;;;12.10;3.42;;;15.50;97.70;;;;;;4989998;28;20422;-72
2022/04/30 09:57:44;;;;;;;9.77;3.30;;;15.30;94.60;;;;;;4987599;28;20084;-72
2022/04/30 10:00:11;;;;;;;6.75;3.35;;;15.50;95.80;;;;;;4993753;28;20791;-72
2022/04/30 10:02:38;;;;;;;7.75;3.53;;;14.90;92.90;;;;;;4987085;28;20495;-72
2022/04/30 10:05:05;;;;;;;6.97;3.72;;;15.00;96.70;;;;;;4988610;28;20052;-72
2022/04/30 10:07:33;;;;;;;12.98;4.00;;;15.30;93.90;;;;;;4974037;28;20116;-72
2022/04/30 10:10:12;;;;;;;12.90;4.15;;;15.60;94.10;;;;;;4989750;28;20414;-72
2022/04/30 10:12:54;;;;;;;11.90;3.70;;;15.50;92.40;;;;;;4985080;28;20575;-72
2022/04/30 10:15:41;;;;;;;12.98;3.58;;;15.00;88.60;;;;;;4989349;28;20400;-72
2022/04/30 10:18:09;;;;;;;9.38;3.33;;;15.20;93.20;;;;;;4987897;28;20145;-72
2022/04/30 10:20:35;;;;;;;9.25;3.75;;;15.70;94.80;;;;;;4972556;28;20049;-72
2022/04/30 10:23:03;;;;;;;7.18;3.40;;;16.30;96.30;;;;;;4972696;28;20046;-72
2022/04/30 10:25:50;;;;;;;8.57;3.85;;;16.70;78.30;;;;;;4988008;28;20048;-72
2022/04/30 10:28:18;;;;;;;7.30;2.88;;;17.10;82.50;;;;;;4973882;28;20048;-72
2022/04/30 10:31:05;;;;;;;5.53;2.92;;;16.00;75.60;;;;;;4989653;28;20049;-72
2022/04/30 10:33:32;;;;;;;6.80;3.00;;;16.20;81.60;;;;;;4970230;28;20052;-72
2022/04/30 10:36:09;;;;;;;6.45;3.40;;;15.80;80.70;;;;;;4988422;28;20092;-72
2022/04/30 10:38:37;;;;;;;7.70;3.83;;;15.70;78.90;;;;;;4971511;28;20053;-73
2022/04/30 10:41:04;;;;;;;7.93;3.95;;;16.00;90.40;;;;;;4991363;28;20104;-72
2022/04/30 10:43:38;;;;;;;6.60;3.80;;;15.50;81.50;;;;;;4988224;28;20054;-72
2022/04/30 10:46:17;;;;;;;6.95;3.60;;;15.80;96.80;;;;;;4989408;28;20141;-72
2022/04/30 10:48:43;;;;;;;6.53;3.60;;;15.90;89.20;;;;;;4988375;28;20114;-72
2022/04/30 10:51:11;;;;;;;6.95;3.47;;;15.70;83.30;;;;;;4987172;28;20041;-72
2022/04/30 10:53:42;;;;;;;10.02;3.28;;;15.40;79.30;;;;;;4972167;28;20630;-72
2022/04/30 10:56:08;;;;;;;10.77;3.13;;;15.00;79.10;;;;;;4969456;28;20156;-72
2022/04/30 10:58:39;;;;;;;8.48;3.22;;;14.60;76.80;;;;;;4980741;28;20140;-72
2022/04/30 11:01:20;;;;;;;8.10;3.78;;;15.20;90.10;;;;;;4987924;28;20046;-72
2022/04/30 11:03:50;;;;;;;8.02;3.95;;;15.70;83.30;;;;;;4984051;28;20444;-72
2022/04/30 11:06:24;;;;;;;9.02;4.00;;;15.50;79.20;;;;;;4985256;28;20124;-72
2022/04/30 11:09:05;;;;;;;9.05;3.58;;;16.50;87.90;;;;;;4982468;28;20042;-72
2022/04/30 11:11:31;;;;;;;15.50;4.20;;;15.80;81.80;;;;;;4973305;28;20089;-72
2022/04/30 11:14:05;;;;;;;7.10;3.55;;;16.20;78.30;;;;;;4987026;28;20483;-72
2022/04/30 11:16:32;;;;;;;7.93;3.50;;;15.50;71.50;;;;;;4971858;28;20422;-72
2022/04/30 11:19:10;;;;;;;16.13;4.28;;;15.40;75.20;;;;;;4991101;28;20423;-72
2022/04/30 11:21:40;;;;;;;6.85;2.92;;;15.40;80.70;;;;;;4992535;28;20053;-72
2022/04/30 11:24:07;;;;;;;6.53;2.83;;;16.10;76.80;;;;;;4992986;28;20666;-72
2022/04/30 11:26:41;;;;;;;7.00;3.10;;;15.90;74.20;;;;;;4990160;28;20053;-73
2022/04/30 11:29:07;;;;;;;;;;;15.90;77.30;;;;;;4989508;28;20049;-72
2022/04/30 11:31:33;;;;;;;5.45;2.53;;;16.10;71.70;;;;;;4972644;28;19936;-72
2022/04/30 11:34:08;;;;;;;8.50;2.92;;;16.30;75.60;;;;;;4991742;28;20045;-72
2022/04/30 11:36:41;;;;;;;6.97;2.90;;;15.80;66.40;;;;;;4988564;28;20131;-72
2022/04/30 11:39:10;;;;;;;4.82;2.63;;;15.70;71.60;;;;;;4988027;28;20041;-72
2022/04/30 11:41:39;;;;;;;6.57;2.47;;;16.00;71.20;;;;;;4973653;28;20111;-72
2022/04/30 11:44:05;;;;;;;4.95;2.70;;;16.00;68.30;;;;;;4967761;28;20797;-72
2022/04/30 11:46:31;;;;;;;7.00;3.00;;;15.90;71.00;;;;;;4985117;28;20527;-72
2022/04/30 11:48:57;;;;;;;7.53;2.67;;;15.80;71.20;;;;;;4987870;28;20042;-72
2022/04/30 11:51:27;;;;;;;5.38;2.80;;;15.60;68.60;;;;;;4989948;28;20042;-72
2022/04/30 11:53:53;;;;;;;8.07;2.60;;;15.00;70.60;;;;;;4986239;28;20065;-72
2022/04/30 11:56:18;;;;;;;6.53;2.75;;;15.50;72.60;;;;;;4985192;28;20108;-72
2022/04/30 11:58:44;;;;;;;5.93;2.92;;;15.40;70.30;;;;;;4984934;28;20038;-72
2022/04/30 12:01:25;;;;;;;9.27;3.15;;;15.10;74.40;;;;;;4969166;28;20077;-72
2022/04/30 12:04:14;;;;;;;7.55;3.40;;;16.20;70.80;;;;;;4970352;28;20054;-72
2022/04/30 12:06:43;;;;;;;11.32;3.45;;;17.90;83.10;;;;;;4986891;28;20590;-72
2022/04/30 12:09:33;;;;;;;7.30;3.20;;;17.90;76.50;;;;;;4986879;28;20041;-72
2022/04/30 12:12:00;;;;;;;6.72;3.00;;;17.40;71.60;;;;;;4984754;28;20057;-73
2022/04/30 12:14:27;;;;;;;6.90;3.22;;;16.90;71.80;;;;;;4986525;28;21024;-72
2022/04/30 12:16:54;;;;;;;5.63;3.20;;;16.70;71.60;;;;;;4978332;28;20372;-72
2022/04/30 12:25:18;;;;;;;12.65;3.60;;;15.60;80.90;;;;;;4990213;28;20411;-72
2022/04/30 12:27:55;;;;;;;7.43;3.10;;;15.40;82.90;;;;;;4972641;28;20553;-73
2022/04/30 12:30:23;;;;;;;9.27;3.20;;;15.00;79.80;;;;;;4995434;28;20129;-72
2022/04/30 12:32:50;;;;;;;11.82;3.63;;;14.80;77.90;;;;;;4991035;28;20053;-72
2022/04/30 12:35:24;;;;;;;16.88;3.75;;;14.60;91.50;;;;;;4988924;28;20073;-72
2022/04/30 12:38:13;;;;;;;14.00;3.60;;;14.50;91.90;;;;;;4970622;28;20086;-72
2022/04/30 12:40:42;;;;;;;16.02;4.15;;;14.40;96.60;;;;;;4991160;28;20232;-73
2022/04/30 12:43:08;;;;;;;11.65;4.28;;;13.90;96.50;;;;;;4996082;28;20073;-72
2022/04/30 12:45:34;;;;;;;14.50;4.32;;;13.60;98.70;;;;;;4984423;28;20041;-72
2022/04/30 12:48:01;;;;;;;8.95;4.05;;;13.80;99.90;;;;;;4987943;28;20053;-72
2022/04/30 12:50:28;;;;;;;10.55;3.80;;;13.60;99.90;;;;;;4974927;28;20056;-72
2022/04/30 12:52:54;;;;;;;12.15;3.72;;;13.50;99.90;;;;;;4989603;28;20160;-72
2022/04/30 12:55:20;;;;;;;15.80;4.80;;;13.30;99.90;;;;;;4993864;28;20399;-69
2022/04/30 12:57:47;;;;;;;9.23;3.80;;;13.40;99.90;;;;;;4989418;28;20048;-72
2022/04/30 13:00:18;;;;;;;10.88;4.00;;;13.30;99.90;;;;;;4970679;28;20316;-72
2022/04/30 13:02:44;;;;;;;6.53;3.35;;;13.10;99.90;;;;;;4977937;28;20053;-72
2022/04/30 13:05:12;;;;;;;8.27;3.38;;;13.10;99.90;;;;;;4959434;28;20062;-72
2022/04/30 13:07:39;;;;;;;7.00;3.50;;;13.00;99.90;;;;;;4993386;28;20046;-72
2022/04/30 13:15:36;;;;;;;9.05;3.75;;;12.80;99.90;;;;;;4993019;28;20107;-72
2022/04/30 13:18:02;;;;;;;10.32;4.13;;;12.90;99.90;;;;;;4971030;28;20462;-72
2022/04/30 13:20:31;;;;;;;9.48;3.92;;;12.80;99.90;;;;;;4998802;28;20073;-70
2022/04/30 13:22:57;;;;;;;8.38;4.22;;;12.70;99.90;;;;;;4989444;28;20054;-72
2022/04/30 13:25:28;;;;;;;10.20;3.97;;;12.60;99.90;;;;;;4994195;28;20052;-72
2022/04/30 13:28:02;;;;;;;8.75;3.65;;;12.60;99.90;;;;;;4990285;28;20045;-72
2022/04/30 13:30:29;;;;;;;10.70;3.97;;;12.50;99.90;;;;;;4992092;28;20132;-72
2022/04/30 13:32:55;;;;;;;11.40;3.85;;;12.40;99.90;;;;;;4991611;28;20609;-72
2022/04/30 13:35:21;;;;;;;10.43;4.13;;;12.30;99.90;;;;;;4989646;28;20041;-72
2022/04/30 13:37:47;;;;;;;10.65;4.05;;;12.20;99.90;;;;;;4987630;28;20045;-72
2022/04/30 13:40:15;;;;;;;9.88;3.88;;;12.20;99.90;;;;;;4972288;28;20361;-72
2022/04/30 13:42:43;;;;;;;7.85;3.75;;;12.30;99.90;;;;;;4991577;28;20049;-72